Forside
METAR-TAF:

METAR-TAF

Lufthavne :

Cortez, Colorado, USA

Breddekreds: 37-18-23N, længdekreds: 108-37-32W, højde: 1803 m

Aktuelle vejr

Denne rapport blev lavet for 46 minutter siden, kl. 06:53 UTC
Vind 5 kt fra østnordøst
Temperatur -7°C
Fugtighed 73%
Tryk 1025 hPa
Sigt: 16.1 km
skyfri

METAR: KCEZ 290653Z AUTO 06005KT 10SM CLR M07/M11 A3026 RMK AO2 SLP243 T10671111 401221111

Tid: 00:39 (07:39 UTC)


TAF: fraværende

Vejrobservationer og prognoser fra mere end 4000 lufthavne (METAR og TAF).

De gule og røde prikker repræsenterer de meteorologiske stationer.

Flyt musen over at se navnet på stationen.

Så klik over at se vejr observationer og prognoser.

At skifte det kort: Klik på de grønne knapper med et sort kors for at zoome ind; på den grønne knap med en bindestreg for at zoome ud; eller på de grønne pile for tilstødende kort.


METAR-TAF: